sensor_id;sensor_type;location;lat;lon;timestamp;pressure;altitude;pressure_sealevel;temperature;humidity
11806;BME280;5960;42.602;23.482;2022-10-04T00:00:58;93602.41;;;10.97;68.20
11806;BME280;5960;42.602;23.482;2022-10-04T00:03:31;93599.38;;;11.00;68.40
11806;BME280;5960;42.602;23.482;2022-10-04T00:06:00;93596.00;;;10.84;68.50
11806;BME280;5960;42.602;23.482;2022-10-04T00:08:34;93601.66;;;10.81;68.86
11806;BME280;5960;42.602;23.482;2022-10-04T00:11:07;93609.63;;;10.88;68.87
11806;BME280;5960;42.602;23.482;2022-10-04T00:13:40;93600.13;;;10.94;68.37
11806;BME280;5960;42.602;23.482;2022-10-04T00:16:19;93598.44;;;10.86;69.24
11806;BME280;5960;42.602;23.482;2022-10-04T00:18:47;93591.03;;;10.75;69.61
11806;BME280;5960;42.602;23.482;2022-10-04T00:21:13;93599.38;;;10.78;69.70
11806;BME280;5960;42.602;23.482;2022-10-04T00:23:45;93594.31;;;10.77;69.71
11806;BME280;5960;42.602;23.482;2022-10-04T00:29:36;93584.19;;;10.59;70.21
11806;BME280;5960;42.602;23.482;2022-10-04T00:32:26;93575.75;;;10.48;70.21
11806;BME280;5960;42.602;23.482;2022-10-04T00:34:53;93579.19;;;10.49;70.28
11806;BME280;5960;42.602;23.482;2022-10-04T00:37:21;93572.38;;;10.54;70.09
11806;BME280;5960;42.602;23.482;2022-10-04T00:39:59;93568.88;;;10.47;69.86
11806;BME280;5960;42.602;23.482;2022-10-04T00:42:45;93571.03;;;10.44;69.72
11806;BME280;5960;42.602;23.482;2022-10-04T00:45:21;93559.06;;;10.41;69.65
11806;BME280;5960;42.602;23.482;2022-10-04T00:47:59;93556.69;;;10.46;69.59
11806;BME280;5960;42.602;23.482;2022-10-04T00:50:33;93543.91;;;10.43;69.09
11806;BME280;5960;42.602;23.482;2022-10-04T00:53:02;93548.97;;;10.45;68.65
11806;BME280;5960;42.602;23.482;2022-10-04T00:55:41;93544.44;;;10.38;68.21
11806;BME280;5960;42.602;23.482;2022-10-04T00:58:16;93534.44;;;10.34;68.25
11806;BME280;5960;42.602;23.482;2022-10-04T01:00:44;93543.44;;;10.39;68.09
11806;BME280;5960;42.602;23.482;2022-10-04T01:03:17;93540.34;;;10.36;67.70
11806;BME280;5960;42.602;23.482;2022-10-04T01:05:49;93540.00;;;10.39;67.55
11806;BME280;5960;42.602;23.482;2022-10-04T01:08:23;93540.25;;;10.44;67.33
11806;BME280;5960;42.602;23.482;2022-10-04T01:10:54;93538.44;;;10.45;67.28
11806;BME280;5960;42.602;23.482;2022-10-04T01:13:27;93540.91;;;10.46;66.83
11806;BME280;5960;42.602;23.482;2022-10-04T01:15:58;93540.25;;;10.44;66.64
11806;BME280;5960;42.602;23.482;2022-10-04T01:18:29;93541.63;;;10.40;66.72
11806;BME280;5960;42.602;23.482;2022-10-04T01:20:58;93546.16;;;10.46;66.30
11806;BME280;5960;42.602;23.482;2022-10-04T01:23:39;93547.91;;;10.39;66.20
11806;BME280;5960;42.602;23.482;2022-10-04T01:26:35;93549.97;;;10.44;65.59
11806;BME280;5960;42.602;23.482;2022-10-04T01:29:06;93544.06;;;10.42;66.31
11806;BME280;5960;42.602;23.482;2022-10-04T01:31:35;93539.63;;;10.42;66.22
11806;BME280;5960;42.602;23.482;2022-10-04T01:34:03;93550.22;;;10.34;66.72
11806;BME280;5960;42.602;23.482;2022-10-04T01:36:31;93539.53;;;10.35;66.66
11806;BME280;5960;42.602;23.482;2022-10-04T01:39:00;93554.06;;;10.31;66.83
11806;BME280;5960;42.602;23.482;2022-10-04T01:41:30;93554.44;;;10.28;66.88
11806;BME280;5960;42.602;23.482;2022-10-04T01:44:00;93565.31;;;10.25;67.26
11806;BME280;5960;42.602;23.482;2022-10-04T01:46:32;93565.69;;;10.22;67.51
11806;BME280;5960;42.602;23.482;2022-10-04T01:49:03;93571.22;;;10.27;67.22
11806;BME280;5960;42.602;23.482;2022-10-04T01:51:36;93558.50;;;10.31;67.28
11806;BME280;5960;42.602;23.482;2022-10-04T01:54:10;93564.41;;;10.33;67.16
11806;BME280;5960;42.602;23.482;2022-10-04T01:56:42;93570.94;;;10.37;66.73
11806;BME280;5960;42.602;23.482;2022-10-04T01:59:14;93557.69;;;10.45;66.72
11806;BME280;5960;42.602;23.482;2022-10-04T02:01:44;93563.69;;;10.39;66.59
11806;BME280;5960;42.602;23.482;2022-10-04T02:04:15;93564.84;;;10.36;66.12
11806;BME280;5960;42.602;23.482;2022-10-04T02:06:44;93567.66;;;10.35;66.41
11806;BME280;5960;42.602;23.482;2022-10-04T02:09:17;93568.50;;;10.35;66.02
11806;BME280;5960;42.602;23.482;2022-10-04T02:11:48;93581.47;;;10.37;66.19
11806;BME280;5960;42.602;23.482;2022-10-04T02:14:19;93575.13;;;10.31;66.50
11806;BME280;5960;42.602;23.482;2022-10-04T02:16:48;93588.53;;;10.36;66.40
11806;BME280;5960;42.602;23.482;2022-10-04T02:19:19;93582.75;;;10.26;66.84
11806;BME280;5960;42.602;23.482;2022-10-04T02:21:48;93589.47;;;10.29;67.01
11806;BME280;5960;42.602;23.482;2022-10-04T02:24:17;93587.66;;;10.29;67.58
11806;BME280;5960;42.602;23.482;2022-10-04T02:26:49;93584.47;;;10.34;67.60
11806;BME280;5960;42.602;23.482;2022-10-04T02:29:16;93591.66;;;10.40;67.18
11806;BME280;5960;42.602;23.482;2022-10-04T02:31:44;93585.91;;;10.36;67.45
11806;BME280;5960;42.602;23.482;2022-10-04T02:34:28;93585.75;;;10.23;67.79
11806;BME280;5960;42.602;23.482;2022-10-04T02:36:56;93589.38;;;10.22;67.98
11806;BME280;5960;42.602;23.482;2022-10-04T02:39:28;93596.47;;;10.21;68.58
11806;BME280;5960;42.602;23.482;2022-10-04T02:41:59;93597.19;;;10.15;68.58
11806;BME280;5960;42.602;23.482;2022-10-04T02:44:29;93601.28;;;10.18;69.05
11806;BME280;5960;42.602;23.482;2022-10-04T02:47:06;93599.63;;;10.17;69.18
11806;BME280;5960;42.602;23.482;2022-10-04T02:49:37;93596.84;;;10.18;69.23
11806;BME280;5960;42.602;23.482;2022-10-04T02:52:09;93606.38;;;10.19;69.58
11806;BME280;5960;42.602;23.482;2022-10-04T02:54:43;93608.09;;;10.12;69.60
11806;BME280;5960;42.602;23.482;2022-10-04T02:57:14;93608.38;;;10.17;69.71
11806;BME280;5960;42.602;23.482;2022-10-04T02:59:42;93607.09;;;10.13;69.91
11806;BME280;5960;42.602;23.482;2022-10-04T03:02:20;93611.09;;;10.09;70.06
11806;BME280;5960;42.602;23.482;2022-10-04T03:04:48;93600.47;;;10.02;70.47
11806;BME280;5960;42.602;23.482;2022-10-04T03:07:17;93605.81;;;10.09;70.41
11806;BME280;5960;42.602;23.482;2022-10-04T03:09:47;93618.63;;;10.12;70.40
11806;BME280;5960;42.602;23.482;2022-10-04T03:12:15;93618.44;;;10.14;70.72
11806;BME280;5960;42.602;23.482;2022-10-04T03:14:42;93610.16;;;10.17;70.54
11806;BME280;5960;42.602;23.482;2022-10-04T03:17:10;93618.81;;;10.11;71.16
11806;BME280;5960;42.602;23.482;2022-10-04T03:19:39;93616.34;;;10.09;71.01
11806;BME280;5960;42.602;23.482;2022-10-04T03:22:08;93610.44;;;10.07;71.33
11806;BME280;5960;42.602;23.482;2022-10-04T03:24:37;93618.91;;;10.17;71.01
11806;BME280;5960;42.602;23.482;2022-10-04T03:27:08;93617.78;;;10.27;71.29
11806;BME280;5960;42.602;23.482;2022-10-04T03:29:40;93622.44;;;10.24;70.91
11806;BME280;5960;42.602;23.482;2022-10-04T03:32:12;93625.88;;;10.25;71.00
11806;BME280;5960;42.602;23.482;2022-10-04T03:34:41;93617.78;;;10.27;70.71
11806;BME280;5960;42.602;23.482;2022-10-04T03:37:14;93634.22;;;10.29;70.76
11806;BME280;5960;42.602;23.482;2022-10-04T03:39:44;93618.91;;;10.32;70.24
11806;BME280;5960;42.602;23.482;2022-10-04T03:42:14;93616.78;;;10.28;70.66
11806;BME280;5960;42.602;23.482;2022-10-04T03:44:43;93630.88;;;10.20;70.92
11806;BME280;5960;42.602;23.482;2022-10-04T03:47:13;93626.25;;;10.22;70.68
11806;BME280;5960;42.602;23.482;2022-10-04T03:49:41;93630.94;;;10.27;70.68
11806;BME280;5960;42.602;23.482;2022-10-04T03:52:14;93636.06;;;10.28;70.15
11806;BME280;5960;42.602;23.482;2022-10-04T03:54:43;93626.44;;;10.35;70.34
11806;BME280;5960;42.602;23.482;2022-10-04T03:57:12;93636.78;;;10.37;69.43
11806;BME280;5960;42.602;23.482;2022-10-04T03:59:39;93644.66;;;10.37;69.85
11806;BME280;5960;42.602;23.482;2022-10-04T04:02:11;93637.88;;;10.43;69.28
11806;BME280;5960;42.602;23.482;2022-10-04T04:04:44;93643.03;;;10.36;69.66
11806;BME280;5960;42.602;23.482;2022-10-04T04:07:19;93645.03;;;10.34;69.82
11806;BME280;5960;42.602;23.482;2022-10-04T04:09:52;93654.56;;;10.35;70.28
11806;BME280;5960;42.602;23.482;2022-10-04T04:12:26;93649.31;;;10.35;69.82
11806;BME280;5960;42.602;23.482;2022-10-04T04:14:59;93657.41;;;10.33;69.87
11806;BME280;5960;42.602;23.482;2022-10-04T04:17:36;93655.69;;;10.41;70.46
11806;BME280;5960;42.602;23.482;2022-10-04T04:20:06;93656.78;;;10.46;70.49
11806;BME280;5960;42.602;23.482;2022-10-04T04:22:37;93653.59;;;10.51;70.33
11806;BME280;5960;42.602;23.482;2022-10-04T04:25:10;93654.31;;;10.60;70.21
11806;BME280;5960;42.602;23.482;2022-10-04T04:27:42;93661.56;;;10.58;69.76
11806;BME280;5960;42.602;23.482;2022-10-04T04:30:15;93668.41;;;10.52;69.68
11806;BME280;5960;42.602;23.482;2022-10-04T04:32:45;93669.09;;;10.61;69.58
11806;BME280;5960;42.602;23.482;2022-10-04T04:35:21;93667.63;;;10.73;69.27
11806;BME280;5960;42.602;23.482;2022-10-04T04:38:02;93671.09;;;10.74;69.18
11806;BME280;5960;42.602;23.482;2022-10-04T04:40:29;93672.91;;;10.73;69.46
11806;BME280;5960;42.602;23.482;2022-10-04T04:43:00;93680.78;;;10.73;68.97
11806;BME280;5960;42.602;23.482;2022-10-04T04:45:29;93667.81;;;10.72;68.91
11806;BME280;5960;42.602;23.482;2022-10-04T04:47:58;93666.00;;;10.72;69.24
11806;BME280;5960;42.602;23.482;2022-10-04T04:50:28;93661.47;;;10.81;68.59
11806;BME280;5960;42.602;23.482;2022-10-04T04:52:58;93672.53;;;10.76;68.88
11806;BME280;5960;42.602;23.482;2022-10-04T04:55:31;93672.91;;;10.73;68.72
11806;BME280;5960;42.602;23.482;2022-10-04T04:58:03;93666.03;;;10.57;69.12
11806;BME280;5960;42.602;23.482;2022-10-04T05:00:34;93676.38;;;10.59;68.82
11806;BME280;5960;42.602;23.482;2022-10-04T05:03:04;93670.38;;;10.65;69.17
11806;BME280;5960;42.602;23.482;2022-10-04T05:05:33;93672.47;;;10.54;69.24
11806;BME280;5960;42.602;23.482;2022-10-04T05:08:13;93673.84;;;10.50;69.66
11806;BME280;5960;42.602;23.482;2022-10-04T05:10:43;93671.94;;;10.44;68.99
11806;BME280;5960;42.602;23.482;2022-10-04T05:13:12;93682.84;;;10.41;69.51
11806;BME280;5960;42.602;23.482;2022-10-04T05:15:40;93677.75;;;10.39;68.93
11806;BME280;5960;42.602;23.482;2022-10-04T05:18:26;93685.16;;;10.36;69.43
11806;BME280;5960;42.602;23.482;2022-10-04T05:20:56;93679.91;;;10.36;69.15
11806;BME280;5960;42.602;23.482;2022-10-04T05:23:24;93686.13;;;10.43;69.52
11806;BME280;5960;42.602;23.482;2022-10-04T05:25:51;93681.22;;;10.40;69.16
11806;BME280;5960;42.602;23.482;2022-10-04T05:28:19;93680.09;;;10.34;69.98
11806;BME280;5960;42.602;23.482;2022-10-04T05:30:59;93682.34;;;10.37;69.29
11806;BME280;5960;42.602;23.482;2022-10-04T05:33:36;93693.25;;;10.49;69.49
11806;BME280;5960;42.602;23.482;2022-10-04T05:36:40;93692.19;;;10.59;69.45
11806;BME280;5960;42.602;23.482;2022-10-04T05:39:19;93701.63;;;10.68;68.83
11806;BME280;5960;42.602;23.482;2022-10-04T05:41:55;93701.25;;;10.71;68.42
11806;BME280;5960;42.602;23.482;2022-10-04T05:44:26;93699.25;;;10.73;68.26
11806;BME280;5960;42.602;23.482;2022-10-04T05:46:55;93704.06;;;10.84;68.41
11806;BME280;5960;42.602;23.482;2022-10-04T05:49:24;93705.41;;;10.95;68.26
11806;BME280;5960;42.602;23.482;2022-10-04T05:51:53;93701.41;;;10.99;67.76
11806;BME280;5960;42.602;23.482;2022-10-04T05:54:22;93701.84;;;11.03;67.43
11806;BME280;5960;42.602;23.482;2022-10-04T05:57:11;93714.97;;;11.18;66.71
11806;BME280;5960;42.602;23.482;2022-10-04T06:00:00;93718.00;;;11.15;67.24
11806;BME280;5960;42.602;23.482;2022-10-04T06:02:42;93718.81;;;11.16;66.82
11806;BME280;5960;42.602;23.482;2022-10-04T06:05:12;93723.84;;;11.32;66.96
11806;BME280;5960;42.602;23.482;2022-10-04T06:07:42;93730.09;;;11.68;66.07
11806;BME280;5960;42.602;23.482;2022-10-04T06:10:38;93737.03;;;12.19;64.73
11806;BME280;5960;42.602;23.482;2022-10-04T06:13:18;93739.69;;;12.19;64.02
11806;BME280;5960;42.602;23.482;2022-10-04T06:15:56;93741.75;;;12.52;62.72
11806;BME280;5960;42.602;23.482;2022-10-04T06:18:42;93745.81;;;12.55;62.43
11806;BME280;5960;42.602;23.482;2022-10-04T06:21:20;93749.72;;;12.30;62.84
11806;BME280;5960;42.602;23.482;2022-10-04T06:23:55;93752.13;;;12.25;63.06
11806;BME280;5960;42.602;23.482;2022-10-04T06:26:28;93752.13;;;12.25;62.86
11806;BME280;5960;42.602;23.482;2022-10-04T06:28:58;93753.25;;;11.94;63.48
11806;BME280;5960;42.602;23.482;2022-10-04T06:31:56;93756.34;;;11.76;64.15
11806;BME280;5960;42.602;23.482;2022-10-04T06:34:53;93762.91;;;12.02;63.53
11806;BME280;5960;42.602;23.482;2022-10-04T06:40:38;93767.06;;;12.11;63.02
11806;BME280;5960;42.602;23.482;2022-10-04T06:43:19;93753.72;;;12.19;63.56
11806;BME280;5960;42.602;23.482;2022-10-04T06:45:59;93767.44;;;12.37;63.07
11806;BME280;5960;42.602;23.482;2022-10-04T06:51:41;93765.75;;;12.92;61.83
11806;BME280;5960;42.602;23.482;2022-10-04T06:54:24;93765.66;;;13.14;60.96
11806;BME280;5960;42.602;23.482;2022-10-04T07:00:07;93782.44;;;13.35;59.20
11806;BME280;5960;42.602;23.482;2022-10-04T07:02:39;93775.78;;;13.52;59.30
11806;BME280;5960;42.602;23.482;2022-10-04T07:05:17;93778.28;;;13.67;59.06
11806;BME280;5960;42.602;23.482;2022-10-04T07:07:50;93777.88;;;13.77;58.63
11806;BME280;5960;42.602;23.482;2022-10-04T07:10:34;93783.22;;;14.11;58.00
11806;BME280;5960;42.602;23.482;2022-10-04T07:13:12;93776.09;;;14.05;57.24
11806;BME280;5960;42.602;23.482;2022-10-04T07:15:46;93782.53;;;13.62;57.10
11806;BME280;5960;42.602;23.482;2022-10-04T07:18:19;93788.88;;;13.67;57.68
11806;BME280;5960;42.602;23.482;2022-10-04T07:20:57;93789.69;;;13.68;57.93
11806;BME280;5960;42.602;23.482;2022-10-04T07:23:27;93799.47;;;13.74;57.07
11806;BME280;5960;42.602;23.482;2022-10-04T07:26:00;93790.56;;;14.02;56.78
11806;BME280;5960;42.602;23.482;2022-10-04T07:28:31;93796.31;;;14.46;55.98
11806;BME280;5960;42.602;23.482;2022-10-04T07:31:20;93798.03;;;15.26;54.26
11806;BME280;5960;42.602;23.482;2022-10-04T07:33:54;93793.50;;;15.79;52.24
11806;BME280;5960;42.602;23.482;2022-10-04T07:36:27;93803.34;;;16.17;51.04
11806;BME280;5960;42.602;23.482;2022-10-04T07:39:02;93798.50;;;16.58;49.27
11806;BME280;5960;42.602;23.482;2022-10-04T07:41:33;93802.97;;;16.39;48.80
11806;BME280;5960;42.602;23.482;2022-10-04T07:44:05;93795.28;;;15.99;50.04
11806;BME280;5960;42.602;23.482;2022-10-04T07:46:46;93798.81;;;15.79;51.62
11806;BME280;5960;42.602;23.482;2022-10-04T07:49:16;93802.84;;;16.27;50.10
11806;BME280;5960;42.602;23.482;2022-10-04T07:54:37;93803.94;;;16.19;49.36
11806;BME280;5960;42.602;23.482;2022-10-04T07:57:14;93802.16;;;16.06;49.72
11806;BME280;5960;42.602;23.482;2022-10-04T07:59:52;93791.50;;;16.13;50.58
11806;BME280;5960;42.602;23.482;2022-10-04T08:02:31;93795.69;;;16.53;49.60
11806;BME280;5960;42.602;23.482;2022-10-04T08:05:11;93807.75;;;16.55;49.01
11806;BME280;5960;42.602;23.482;2022-10-04T08:07:54;93801.72;;;16.42;48.48
11806;BME280;5960;42.602;23.482;2022-10-04T08:10:27;93798.72;;;16.57;48.32
11806;BME280;5960;42.602;23.482;2022-10-04T08:13:02;93801.63;;;16.55;48.42
11806;BME280;5960;42.602;23.482;2022-10-04T08:15:35;93800.91;;;16.41;48.66
11806;BME280;5960;42.602;23.482;2022-10-04T08:18:10;93803.16;;;16.37;48.61
11806;BME280;5960;42.602;23.482;2022-10-04T08:20:46;93807.94;;;16.29;48.08
11806;BME280;5960;42.602;23.482;2022-10-04T08:26:25;93798.94;;;16.30;48.70
11806;BME280;5960;42.602;23.482;2022-10-04T08:29:04;93794.75;;;16.91;47.65
11806;BME280;5960;42.602;23.482;2022-10-04T08:32:00;93794.81;;;17.47;45.89
11806;BME280;5960;42.602;23.482;2022-10-04T08:34:43;93790.75;;;17.75;44.99
11806;BME280;5960;42.602;23.482;2022-10-04T08:37:27;93780.47;;;17.79;44.75
11806;BME280;5960;42.602;23.482;2022-10-04T08:40:17;93789.00;;;18.42;43.65
11806;BME280;5960;42.602;23.482;2022-10-04T08:43:24;93782.22;;;18.70;42.33
11806;BME280;5960;42.602;23.482;2022-10-04T08:49:18;93785.53;;;19.36;40.79
11806;BME280;5960;42.602;23.482;2022-10-04T08:52:08;93786.06;;;19.62;40.12
11806;BME280;5960;42.602;23.482;2022-10-04T08:55:14;93783.94;;;19.76;39.45
11806;BME280;5960;42.602;23.482;2022-10-04T08:58:12;93783.25;;;20.10;38.86
11806;BME280;5960;42.602;23.482;2022-10-04T09:00:52;93790.34;;;20.50;37.52
11806;BME280;5960;42.602;23.482;2022-10-04T09:06:39;93794.88;;;20.04;38.44
11806;BME280;5960;42.602;23.482;2022-10-04T09:09:47;93798.59;;;20.32;39.09
11806;BME280;5960;42.602;23.482;2022-10-04T09:12:43;93805.00;;;20.30;38.90
11806;BME280;5960;42.602;23.482;2022-10-04T09:15:27;93809.53;;;19.60;39.02
11806;BME280;5960;42.602;23.482;2022-10-04T09:18:18;93805.31;;;18.64;40.50
11806;BME280;5960;42.602;23.482;2022-10-04T09:20:53;93810.84;;;18.50;41.52
11806;BME280;5960;42.602;23.482;2022-10-04T09:26:32;93812.81;;;20.03;38.54
11806;BME280;5960;42.602;23.482;2022-10-04T09:35:23;93817.59;;;19.48;39.72
11806;BME280;5960;42.602;23.482;2022-10-04T09:38:07;93817.16;;;19.80;39.03
11806;BME280;5960;42.602;23.482;2022-10-04T09:40:56;93816.59;;;19.78;38.10
11806;BME280;5960;42.602;23.482;2022-10-04T09:43:54;93814.59;;;19.45;39.31
11806;BME280;5960;42.602;23.482;2022-10-04T09:46:54;93821.88;;;19.49;40.74
11806;BME280;5960;42.602;23.482;2022-10-04T09:49:51;93830.97;;;19.24;40.91
11806;BME280;5960;42.602;23.482;2022-10-04T09:52:36;93818.78;;;19.05;40.84
11806;BME280;5960;42.602;23.482;2022-10-04T09:58:16;93813.75;;;18.49;41.81
11806;BME280;5960;42.602;23.482;2022-10-04T10:00:59;93826.88;;;18.62;43.13
11806;BME280;5960;42.602;23.482;2022-10-04T10:03:49;93820.53;;;19.11;40.91
11806;BME280;5960;42.602;23.482;2022-10-04T10:06:37;93829.59;;;19.34;41.23
11806;BME280;5960;42.602;23.482;2022-10-04T10:09:18;93825.22;;;19.68;39.37
11806;BME280;5960;42.602;23.482;2022-10-04T10:12:21;93819.78;;;19.51;39.74
11806;BME280;5960;42.602;23.482;2022-10-04T10:15:23;93825.53;;;19.43;40.34
11806;BME280;5960;42.602;23.482;2022-10-04T10:17:57;93833.66;;;19.24;40.31
11806;BME280;5960;42.602;23.482;2022-10-04T10:20:56;93828.97;;;18.84;41.32
11806;BME280;5960;42.602;23.482;2022-10-04T10:23:34;93833.78;;;18.40;41.84
11806;BME280;5960;42.602;23.482;2022-10-04T10:26:31;93831.34;;;18.38;42.74
11806;BME280;5960;42.602;23.482;2022-10-04T10:29:32;93828.31;;;18.34;43.53
11806;BME280;5960;42.602;23.482;2022-10-04T10:32:32;93835.56;;;18.15;43.45
11806;BME280;5960;42.602;23.482;2022-10-04T10:35:31;93831.25;;;17.84;43.85
11806;BME280;5960;42.602;23.482;2022-10-04T10:38:17;93833.44;;;17.87;44.23
11806;BME280;5960;42.602;23.482;2022-10-04T10:44:04;93830.78;;;17.87;44.13
11806;BME280;5960;42.602;23.482;2022-10-04T10:46:44;93831.75;;;17.93;43.85
11806;BME280;5960;42.602;23.482;2022-10-04T10:49:38;93828.09;;;17.87;44.68
11806;BME280;5960;42.602;23.482;2022-10-04T10:55:28;93831.84;;;17.67;44.26
11806;BME280;5960;42.602;23.482;2022-10-04T10:58:13;93837.59;;;17.64;45.15
11806;BME280;5960;42.602;23.482;2022-10-04T11:00:54;93831.56;;;17.57;44.44
11806;BME280;5960;42.602;23.482;2022-10-04T11:07:09;93829.09;;;17.55;45.86
11806;BME280;5960;42.602;23.482;2022-10-04T11:13:07;93833.13;;;17.95;44.38
11806;BME280;5960;42.602;23.482;2022-10-04T11:16:04;93837.59;;;18.01;44.13
11806;BME280;5960;42.602;23.482;2022-10-04T11:22:12;93830.94;;;18.23;43.38
11806;BME280;5960;42.602;23.482;2022-10-04T11:24:59;93830.66;;;18.43;43.73
11806;BME280;5960;42.602;23.482;2022-10-04T11:27:44;93827.69;;;18.63;43.85
11806;BME280;5960;42.602;23.482;2022-10-04T11:30:19;93825.84;;;19.47;42.50
11806;BME280;5960;42.602;23.482;2022-10-04T11:36:22;93830.00;;;21.78;37.21
11806;BME280;5960;42.602;23.482;2022-10-04T11:39:19;93829.97;;;22.77;35.16
11806;BME280;5960;42.602;23.482;2022-10-04T11:41:53;93827.75;;;22.69;33.94
11806;BME280;5960;42.602;23.482;2022-10-04T11:47:39;93835.00;;;22.41;35.12
11806;BME280;5960;42.602;23.482;2022-10-04T11:56:27;93845.06;;;24.12;32.29
11806;BME280;5960;42.602;23.482;2022-10-04T12:02:05;93838.31;;;23.56;32.87
11806;BME280;5960;42.602;23.482;2022-10-04T12:07:48;93827.75;;;23.93;32.30
11806;BME280;5960;42.602;23.482;2022-10-04T12:10:23;93825.72;;;23.57;32.87
11806;BME280;5960;42.602;23.482;2022-10-04T12:13:06;93827.47;;;23.03;34.25
11806;BME280;5960;42.602;23.482;2022-10-04T12:15:56;93823.47;;;23.06;34.12
11806;BME280;5960;42.602;23.482;2022-10-04T12:18:44;93821.31;;;22.15;34.72
11806;BME280;5960;42.602;23.482;2022-10-04T12:21:45;93823.53;;;22.78;34.22
11806;BME280;5960;42.602;23.482;2022-10-04T12:24:39;93819.91;;;23.81;33.06
11806;BME280;5960;42.602;23.482;2022-10-04T12:27:30;93826.59;;;24.62;31.06
11806;BME280;5960;42.602;23.482;2022-10-04T12:30:17;93833.13;;;24.92;30.14
11806;BME280;5960;42.602;23.482;2022-10-04T12:32:55;93822.06;;;25.04;30.10
11806;BME280;5960;42.602;23.482;2022-10-04T12:35:33;93835.25;;;25.06;30.05
11806;BME280;5960;42.602;23.482;2022-10-04T12:38:20;93840.91;;;25.15;29.66
11806;BME280;5960;42.602;23.482;2022-10-04T12:40:56;93835.81;;;24.98;30.84
11806;BME280;5960;42.602;23.482;2022-10-04T12:43:33;93829.78;;;25.68;29.32
11806;BME280;5960;42.602;23.482;2022-10-04T12:46:12;93830.34;;;26.36;28.72
11806;BME280;5960;42.602;23.482;2022-10-04T12:48:56;93835.31;;;27.32;26.96
11806;BME280;5960;42.602;23.482;2022-10-04T12:51:46;93824.38;;;28.21;26.61
11806;BME280;5960;42.602;23.482;2022-10-04T12:54:25;93833.09;;;29.13;25.13
11806;BME280;5960;42.602;23.482;2022-10-04T12:57:10;93836.28;;;29.82;25.34
11806;BME280;5960;42.602;23.482;2022-10-04T12:59:49;93839.28;;;30.50;24.17
11806;BME280;5960;42.602;23.482;2022-10-04T13:02:31;93825.53;;;30.55;23.32
11806;BME280;5960;42.602;23.482;2022-10-04T13:05:03;93838.78;;;31.76;23.00
11806;BME280;5960;42.602;23.482;2022-10-04T13:10:41;93833.13;;;32.12;21.51
11806;BME280;5960;42.602;23.482;2022-10-04T13:13:37;93836.88;;;30.35;22.78
11806;BME280;5960;42.602;23.482;2022-10-04T13:16:23;93841.28;;;30.30;23.30
11806;BME280;5960;42.602;23.482;2022-10-04T13:18:59;93841.16;;;31.00;23.22
11806;BME280;5960;42.602;23.482;2022-10-04T13:21:52;93834.22;;;32.03;21.64
11806;BME280;5960;42.602;23.482;2022-10-04T13:24:27;93843.53;;;32.68;20.81
11806;BME280;5960;42.602;23.482;2022-10-04T13:27:18;93833.47;;;33.04;21.32
11806;BME280;5960;42.602;23.482;2022-10-04T13:29:53;93838.94;;;33.96;19.89
11806;BME280;5960;42.602;23.482;2022-10-04T13:32:29;93847.44;;;33.94;20.30
11806;BME280;5960;42.602;23.482;2022-10-04T13:35:01;93848.78;;;34.18;19.47
11806;BME280;5960;42.602;23.482;2022-10-04T13:37:36;93841.28;;;32.53;20.91
11806;BME280;5960;42.602;23.482;2022-10-04T13:40:29;93844.44;;;31.34;21.29
11806;BME280;5960;42.602;23.482;2022-10-04T13:46:01;93845.09;;;30.57;22.84
11806;BME280;5960;42.602;23.482;2022-10-04T13:48:43;93855.28;;;31.25;23.28
11806;BME280;5960;42.602;23.482;2022-10-04T13:51:33;93848.72;;;30.67;23.36
11806;BME280;5960;42.602;23.482;2022-10-04T13:54:20;93858.53;;;28.22;25.58
11806;BME280;5960;42.602;23.482;2022-10-04T13:57:20;93857.19;;;26.06;27.92
11806;BME280;5960;42.602;23.482;2022-10-04T13:59:53;93861.41;;;25.16;29.44
11806;BME280;5960;42.602;23.482;2022-10-04T14:02:47;93865.44;;;25.08;29.47
11806;BME280;5960;42.602;23.482;2022-10-04T14:05:37;93867.19;;;24.30;30.26
11806;BME280;5960;42.602;23.482;2022-10-04T14:11:46;93864.13;;;22.54;32.47
11806;BME280;5960;42.602;23.482;2022-10-04T14:14:38;93874.97;;;21.71;34.41
11806;BME280;5960;42.602;23.482;2022-10-04T14:17:41;93866.56;;;21.11;35.38
11806;BME280;5960;42.602;23.482;2022-10-04T14:23:57;93877.88;;;20.50;36.99
11806;BME280;5960;42.602;23.482;2022-10-04T14:26:56;93872.03;;;19.95;37.56
11806;BME280;5960;42.602;23.482;2022-10-04T14:29:49;93889.28;;;19.51;38.37
11806;BME280;5960;42.602;23.482;2022-10-04T14:32:49;93889.97;;;19.11;38.97
11806;BME280;5960;42.602;23.482;2022-10-04T14:35:26;93884.44;;;18.82;39.89
11806;BME280;5960;42.602;23.482;2022-10-04T14:38:32;93889.66;;;18.77;40.47
11806;BME280;5960;42.602;23.482;2022-10-04T14:44:28;93896.06;;;18.45;41.19
11806;BME280;5960;42.602;23.482;2022-10-04T14:47:13;93897.00;;;18.39;40.90
11806;BME280;5960;42.602;23.482;2022-10-04T14:49:57;93898.78;;;18.57;41.23
11806;BME280;5960;42.602;23.482;2022-10-04T14:52:35;93901.25;;;18.59;41.05
11806;BME280;5960;42.602;23.482;2022-10-04T14:55:24;93910.16;;;18.22;40.79
11806;BME280;5960;42.602;23.482;2022-10-04T14:58:04;93902.63;;;17.82;41.38
11806;BME280;5960;42.602;23.482;2022-10-04T15:00:53;93911.00;;;17.41;42.12
11806;BME280;5960;42.602;23.482;2022-10-04T15:03:34;93913.66;;;17.23;42.61
11806;BME280;5960;42.602;23.482;2022-10-04T15:06:21;93918.34;;;17.02;43.00
11806;BME280;5960;42.602;23.482;2022-10-04T15:09:02;93922.97;;;16.81;44.21
11806;BME280;5960;42.602;23.482;2022-10-04T15:11:48;93927.38;;;16.69;44.32
11806;BME280;5960;42.602;23.482;2022-10-04T15:14:41;93934.09;;;16.33;45.10
11806;BME280;5960;42.602;23.482;2022-10-04T15:17:26;93936.47;;;16.09;46.33
11806;BME280;5960;42.602;23.482;2022-10-04T15:20:02;93945.13;;;15.98;46.98
11806;BME280;5960;42.602;23.482;2022-10-04T15:22:38;93938.13;;;16.03;47.06
11806;BME280;5960;42.602;23.482;2022-10-04T15:25:37;93945.94;;;15.78;47.32
11806;BME280;5960;42.602;23.482;2022-10-04T15:28:09;93942.97;;;15.54;48.40